sensor_id;sensor_type;location;lat;lon;timestamp;temperature;humidity
17891;DHT22;9071;48.220;14.480;2022-11-06T00:03:08;4.40;99.90
17891;DHT22;9071;48.220;14.480;2022-11-06T00:08:10;4.50;99.90
17891;DHT22;9071;48.220;14.480;2022-11-06T00:13:12;4.40;99.90
17891;DHT22;9071;48.220;14.480;2022-11-06T00:18:16;4.30;99.90
17891;DHT22;9071;48.220;14.480;2022-11-06T00:23:18;4.30;99.90
17891;DHT22;9071;48.220;14.480;2022-11-06T00:28:20;4.40;99.90
17891;DHT22;9071;48.220;14.480;2022-11-06T00:33:23;4.30;99.90
17891;DHT22;9071;48.220;14.480;2022-11-06T00:38:25;4.30;99.90
17891;DHT22;9071;48.220;14.480;2022-11-06T00:43:27;4.10;99.90
17891;DHT22;9071;48.220;14.480;2022-11-06T00:48:31;4.10;99.90
17891;DHT22;9071;48.220;14.480;2022-11-06T00:53:33;4.30;99.90
17891;DHT22;9071;48.220;14.480;2022-11-06T00:58:36;4.70;99.90
17891;DHT22;9071;48.220;14.480;2022-11-06T01:03:40;4.70;99.90
17891;DHT22;9071;48.220;14.480;2022-11-06T01:08:43;4.50;99.90
17891;DHT22;9071;48.220;14.480;2022-11-06T01:13:48;4.30;99.90
17891;DHT22;9071;48.220;14.480;2022-11-06T01:18:53;4.00;99.90
17891;DHT22;9071;48.220;14.480;2022-11-06T01:23:57;4.00;99.90
17891;DHT22;9071;48.220;14.480;2022-11-06T01:28:59;3.90;99.90
17891;DHT22;9071;48.220;14.480;2022-11-06T01:34:03;3.80;99.90
17891;DHT22;9071;48.220;14.480;2022-11-06T01:39:07;3.90;99.90
17891;DHT22;9071;48.220;14.480;2022-11-06T01:49:51;3.50;99.90
17891;DHT22;9071;48.220;14.480;2022-11-06T01:54:56;3.50;99.90
17891;DHT22;9071;48.220;14.480;2022-11-06T02:00:00;3.80;99.90
17891;DHT22;9071;48.220;14.480;2022-11-06T02:05:05;4.10;99.90
17891;DHT22;9071;48.220;14.480;2022-11-06T02:10:08;4.30;99.90
17891;DHT22;9071;48.220;14.480;2022-11-06T02:15:16;4.20;99.90
17891;DHT22;9071;48.220;14.480;2022-11-06T02:20:26;4.10;99.90
17891;DHT22;9071;48.220;14.480;2022-11-06T02:25:40;4.00;99.90
17891;DHT22;9071;48.220;14.480;2022-11-06T02:30:46;4.00;99.90
17891;DHT22;9071;48.220;14.480;2022-11-06T02:35:52;4.00;99.90
17891;DHT22;9071;48.220;14.480;2022-11-06T02:40:59;4.20;99.90
17891;DHT22;9071;48.220;14.480;2022-11-06T02:46:07;4.40;99.90
17891;DHT22;9071;48.220;14.480;2022-11-06T02:51:14;4.60;99.90
17891;DHT22;9071;48.220;14.480;2022-11-06T02:56:21;4.80;99.90
17891;DHT22;9071;48.220;14.480;2022-11-06T03:01:28;4.80;99.90
17891;DHT22;9071;48.220;14.480;2022-11-06T03:06:34;4.90;99.90
17891;DHT22;9071;48.220;14.480;2022-11-06T03:11:36;4.80;99.90
17891;DHT22;9071;48.220;14.480;2022-11-06T03:16:48;4.80;99.90
17891;DHT22;9071;48.220;14.480;2022-11-06T03:21:59;4.80;99.90
17891;DHT22;9071;48.220;14.480;2022-11-06T03:27:06;4.80;99.90
17891;DHT22;9071;48.220;14.480;2022-11-06T03:32:14;4.70;99.90
17891;DHT22;9071;48.220;14.480;2022-11-06T03:37:23;4.50;99.90
17891;DHT22;9071;48.220;14.480;2022-11-06T03:42:30;4.30;99.90
17891;DHT22;9071;48.220;14.480;2022-11-06T03:47:37;4.10;99.90
17891;DHT22;9071;48.220;14.480;2022-11-06T03:52:45;3.90;99.90
17891;DHT22;9071;48.220;14.480;2022-11-06T03:57:54;4.00;99.90
17891;DHT22;9071;48.220;14.480;2022-11-06T04:02:59;4.10;99.90
17891;DHT22;9071;48.220;14.480;2022-11-06T04:08:06;4.30;99.90
17891;DHT22;9071;48.220;14.480;2022-11-06T04:13:29;4.30;99.90
17891;DHT22;9071;48.220;14.480;2022-11-06T04:18:51;4.40;99.90
17891;DHT22;9071;48.220;14.480;2022-11-06T04:24:04;4.60;99.90
17891;DHT22;9071;48.220;14.480;2022-11-06T04:29:34;4.70;99.90
17891;DHT22;9071;48.220;14.480;2022-11-06T04:34:43;4.80;99.90
17891;DHT22;9071;48.220;14.480;2022-11-06T04:39:52;4.70;99.90
17891;DHT22;9071;48.220;14.480;2022-11-06T04:44:59;4.50;99.90
17891;DHT22;9071;48.220;14.480;2022-11-06T04:50:05;4.20;99.90
17891;DHT22;9071;48.220;14.480;2022-11-06T04:55:08;4.00;99.90
17891;DHT22;9071;48.220;14.480;2022-11-06T05:00:12;4.10;99.90
17891;DHT22;9071;48.220;14.480;2022-11-06T05:05:16;4.30;99.90
17891;DHT22;9071;48.220;14.480;2022-11-06T05:10:18;4.50;99.90
17891;DHT22;9071;48.220;14.480;2022-11-06T05:15:20;4.60;99.90
17891;DHT22;9071;48.220;14.480;2022-11-06T05:20:24;4.70;99.90
17891;DHT22;9071;48.220;14.480;2022-11-06T05:25:27;4.80;99.90
17891;DHT22;9071;48.220;14.480;2022-11-06T05:30:30;4.90;99.90
17891;DHT22;9071;48.220;14.480;2022-11-06T05:35:33;4.80;99.90
17891;DHT22;9071;48.220;14.480;2022-11-06T05:40:36;4.80;99.90
17891;DHT22;9071;48.220;14.480;2022-11-06T05:45:38;4.80;99.90
17891;DHT22;9071;48.220;14.480;2022-11-06T05:50:41;4.80;99.90
17891;DHT22;9071;48.220;14.480;2022-11-06T05:55:44;4.80;99.90
17891;DHT22;9071;48.220;14.480;2022-11-06T06:00:46;4.70;99.90
17891;DHT22;9071;48.220;14.480;2022-11-06T06:05:50;4.70;99.90
17891;DHT22;9071;48.220;14.480;2022-11-06T06:10:52;4.70;99.90
17891;DHT22;9071;48.220;14.480;2022-11-06T06:15:54;4.70;99.90
17891;DHT22;9071;48.220;14.480;2022-11-06T06:21:02;4.80;99.90
17891;DHT22;9071;48.220;14.480;2022-11-06T06:26:05;4.90;99.90
17891;DHT22;9071;48.220;14.480;2022-11-06T06:31:07;5.00;99.90
17891;DHT22;9071;48.220;14.480;2022-11-06T06:36:11;5.00;99.90
17891;DHT22;9071;48.220;14.480;2022-11-06T06:41:13;5.10;99.90
17891;DHT22;9071;48.220;14.480;2022-11-06T06:46:15;5.20;99.90
17891;DHT22;9071;48.220;14.480;2022-11-06T06:51:19;5.40;99.90
17891;DHT22;9071;48.220;14.480;2022-11-06T06:56:21;5.50;99.90
17891;DHT22;9071;48.220;14.480;2022-11-06T07:01:23;5.70;99.90
17891;DHT22;9071;48.220;14.480;2022-11-06T07:06:27;5.70;99.90
17891;DHT22;9071;48.220;14.480;2022-11-06T07:11:28;5.80;99.90
17891;DHT22;9071;48.220;14.480;2022-11-06T07:16:31;5.90;99.90
17891;DHT22;9071;48.220;14.480;2022-11-06T07:21:34;6.00;99.90
17891;DHT22;9071;48.220;14.480;2022-11-06T07:26:36;6.20;99.90
17891;DHT22;9071;48.220;14.480;2022-11-06T07:31:38;6.20;99.90
17891;DHT22;9071;48.220;14.480;2022-11-06T07:36:42;6.30;99.90
17891;DHT22;9071;48.220;14.480;2022-11-06T07:41:44;6.50;99.90
17891;DHT22;9071;48.220;14.480;2022-11-06T07:46:46;6.80;99.90
17891;DHT22;9071;48.220;14.480;2022-11-06T07:51:50;7.30;99.90
17891;DHT22;9071;48.220;14.480;2022-11-06T07:56:52;7.90;99.90
17891;DHT22;9071;48.220;14.480;2022-11-06T08:01:54;8.00;99.90
17891;DHT22;9071;48.220;14.480;2022-11-06T08:06:57;8.10;99.90
17891;DHT22;9071;48.220;14.480;2022-11-06T08:11:59;8.00;99.90
17891;DHT22;9071;48.220;14.480;2022-11-06T08:17:01;7.80;99.90
17891;DHT22;9071;48.220;14.480;2022-11-06T08:22:05;7.50;99.90
17891;DHT22;9071;48.220;14.480;2022-11-06T08:27:08;7.40;99.90
17891;DHT22;9071;48.220;14.480;2022-11-06T08:32:10;7.60;99.90
17891;DHT22;9071;48.220;14.480;2022-11-06T08:37:14;7.80;99.90
17891;DHT22;9071;48.220;14.480;2022-11-06T08:42:16;7.90;99.90
17891;DHT22;9071;48.220;14.480;2022-11-06T08:47:18;8.00;99.90
17891;DHT22;9071;48.220;14.480;2022-11-06T08:52:21;8.10;99.90
17891;DHT22;9071;48.220;14.480;2022-11-06T08:57:23;8.20;99.90
17891;DHT22;9071;48.220;14.480;2022-11-06T09:02:25;8.50;99.90
17891;DHT22;9071;48.220;14.480;2022-11-06T09:07:29;8.70;99.90
17891;DHT22;9071;48.220;14.480;2022-11-06T09:12:31;9.00;99.90
17891;DHT22;9071;48.220;14.480;2022-11-06T09:17:33;9.10;99.90
17891;DHT22;9071;48.220;14.480;2022-11-06T09:22:37;9.30;99.90
17891;DHT22;9071;48.220;14.480;2022-11-06T09:27:42;9.60;99.90
17891;DHT22;9071;48.220;14.480;2022-11-06T09:32:45;9.80;99.90
17891;DHT22;9071;48.220;14.480;2022-11-06T09:37:49;9.90;99.90
17891;DHT22;9071;48.220;14.480;2022-11-06T09:42:59;9.80;99.90
17891;DHT22;9071;48.220;14.480;2022-11-06T09:48:05;9.80;99.90
17891;DHT22;9071;48.220;14.480;2022-11-06T09:53:21;9.30;99.90
17891;DHT22;9071;48.220;14.480;2022-11-06T09:58:29;9.50;99.90
17891;DHT22;9071;48.220;14.480;2022-11-06T10:03:39;10.00;99.90
17891;DHT22;9071;48.220;14.480;2022-11-06T10:08:43;10.30;99.90
17891;DHT22;9071;48.220;14.480;2022-11-06T10:13:53;10.00;99.90
17891;DHT22;9071;48.220;14.480;2022-11-06T10:19:06;10.00;99.90
17891;DHT22;9071;48.220;14.480;2022-11-06T10:24:20;10.10;99.90
17891;DHT22;9071;48.220;14.480;2022-11-06T10:29:54;10.20;99.90
17891;DHT22;9071;48.220;14.480;2022-11-06T10:35:01;10.40;99.90
17891;DHT22;9071;48.220;14.480;2022-11-06T10:40:15;10.60;99.90
17891;DHT22;9071;48.220;14.480;2022-11-06T10:45:19;10.90;99.90
17891;DHT22;9071;48.220;14.480;2022-11-06T10:50:24;10.40;99.90
17891;DHT22;9071;48.220;14.480;2022-11-06T11:00:58;10.70;99.90
17891;DHT22;9071;48.220;14.480;2022-11-06T11:06:02;10.30;99.90
17891;DHT22;9071;48.220;14.480;2022-11-06T11:11:17;10.50;99.90
17891;DHT22;9071;48.220;14.480;2022-11-06T11:16:22;11.00;99.90
17891;DHT22;9071;48.220;14.480;2022-11-06T11:21:26;11.00;99.90
17891;DHT22;9071;48.220;14.480;2022-11-06T11:26:31;10.70;99.90
17891;DHT22;9071;48.220;14.480;2022-11-06T11:31:34;10.80;99.90
17891;DHT22;9071;48.220;14.480;2022-11-06T11:36:55;10.50;99.90
17891;DHT22;9071;48.220;14.480;2022-11-06T11:42:25;10.70;99.90
17891;DHT22;9071;48.220;14.480;2022-11-06T11:47:27;10.60;99.90
17891;DHT22;9071;48.220;14.480;2022-11-06T11:52:29;10.90;99.90
17891;DHT22;9071;48.220;14.480;2022-11-06T11:57:32;10.90;99.90
17891;DHT22;9071;48.220;14.480;2022-11-06T12:02:39;10.60;99.90
17891;DHT22;9071;48.220;14.480;2022-11-06T12:07:46;10.50;99.90
17891;DHT22;9071;48.220;14.480;2022-11-06T12:12:50;10.70;99.90
17891;DHT22;9071;48.220;14.480;2022-11-06T12:17:57;11.10;99.90
17891;DHT22;9071;48.220;14.480;2022-11-06T12:23:01;11.20;99.90
17891;DHT22;9071;48.220;14.480;2022-11-06T12:28:11;11.20;99.90
17891;DHT22;9071;48.220;14.480;2022-11-06T12:33:16;11.70;99.90
17891;DHT22;9071;48.220;14.480;2022-11-06T12:38:25;11.90;99.90
17891;DHT22;9071;48.220;14.480;2022-11-06T12:43:33;11.70;99.90
17891;DHT22;9071;48.220;14.480;2022-11-06T12:48:48;11.70;99.90
17891;DHT22;9071;48.220;14.480;2022-11-06T12:54:04;12.10;99.90
17891;DHT22;9071;48.220;14.480;2022-11-06T12:59:25;12.30;99.90
17891;DHT22;9071;48.220;14.480;2022-11-06T13:04:41;12.20;99.90
17891;DHT22;9071;48.220;14.480;2022-11-06T13:09:52;12.40;99.90
17891;DHT22;9071;48.220;14.480;2022-11-06T13:15:04;12.40;99.90
17891;DHT22;9071;48.220;14.480;2022-11-06T13:20:15;12.30;99.90
17891;DHT22;9071;48.220;14.480;2022-11-06T13:25:21;12.50;99.90
17891;DHT22;9071;48.220;14.480;2022-11-06T13:30:28;12.50;99.90
17891;DHT22;9071;48.220;14.480;2022-11-06T13:35:32;12.50;99.90
17891;DHT22;9071;48.220;14.480;2022-11-06T13:40:38;12.60;99.90
17891;DHT22;9071;48.220;14.480;2022-11-06T13:45:47;12.50;99.90
17891;DHT22;9071;48.220;14.480;2022-11-06T13:50:57;12.60;99.90
17891;DHT22;9071;48.220;14.480;2022-11-06T13:56:08;12.60;99.90
17891;DHT22;9071;48.220;14.480;2022-11-06T14:01:23;12.60;99.90
17891;DHT22;9071;48.220;14.480;2022-11-06T14:06:28;12.60;99.90
17891;DHT22;9071;48.220;14.480;2022-11-06T14:11:33;12.40;99.90
17891;DHT22;9071;48.220;14.480;2022-11-06T14:16:38;12.30;99.90
17891;DHT22;9071;48.220;14.480;2022-11-06T14:21:44;12.20;99.90
17891;DHT22;9071;48.220;14.480;2022-11-06T14:26:48;12.10;99.90
17891;DHT22;9071;48.220;14.480;2022-11-06T14:31:59;12.00;99.90
17891;DHT22;9071;48.220;14.480;2022-11-06T14:37:44;11.80;99.90
17891;DHT22;9071;48.220;14.480;2022-11-06T14:42:46;11.80;99.90
17891;DHT22;9071;48.220;14.480;2022-11-06T14:47:51;11.70;99.90
17891;DHT22;9071;48.220;14.480;2022-11-06T14:52:59;11.60;99.90
17891;DHT22;9071;48.220;14.480;2022-11-06T14:58:14;11.50;99.90
17891;DHT22;9071;48.220;14.480;2022-11-06T15:03:32;11.30;99.90
17891;DHT22;9071;48.220;14.480;2022-11-06T15:08:53;11.10;99.90
17891;DHT22;9071;48.220;14.480;2022-11-06T15:13:55;11.00;99.90
17891;DHT22;9071;48.220;14.480;2022-11-06T15:19:21;10.80;99.90
17891;DHT22;9071;48.220;14.480;2022-11-06T15:24:27;10.40;99.90
17891;DHT22;9071;48.220;14.480;2022-11-06T15:29:31;10.20;99.90
17891;DHT22;9071;48.220;14.480;2022-11-06T15:34:37;9.90;99.90
17891;DHT22;9071;48.220;14.480;2022-11-06T15:39:49;9.80;99.90
17891;DHT22;9071;48.220;14.480;2022-11-06T15:44:51;9.70;99.90
17891;DHT22;9071;48.220;14.480;2022-11-06T15:50:13;9.60;99.90
17891;DHT22;9071;48.220;14.480;2022-11-06T15:55:25;9.20;99.90
17891;DHT22;9071;48.220;14.480;2022-11-06T16:00:27;9.00;99.90
17891;DHT22;9071;48.220;14.480;2022-11-06T16:05:33;9.00;99.90
17891;DHT22;9071;48.220;14.480;2022-11-06T16:10:36;9.10;99.90
17891;DHT22;9071;48.220;14.480;2022-11-06T16:15:47;8.90;99.90
17891;DHT22;9071;48.220;14.480;2022-11-06T16:20:53;8.90;99.90
17891;DHT22;9071;48.220;14.480;2022-11-06T16:25:58;8.80;99.90
17891;DHT22;9071;48.220;14.480;2022-11-06T16:31:05;8.60;99.90
17891;DHT22;9071;48.220;14.480;2022-11-06T16:36:12;8.40;99.90
17891;DHT22;9071;48.220;14.480;2022-11-06T16:41:15;8.10;99.90
17891;DHT22;9071;48.220;14.480;2022-11-06T16:47:14;7.80;99.90
17891;DHT22;9071;48.220;14.480;2022-11-06T16:52:20;7.40;99.90
17891;DHT22;9071;48.220;14.480;2022-11-06T16:57:25;7.00;99.90
17891;DHT22;9071;48.220;14.480;2022-11-06T17:02:30;6.80;99.90
17891;DHT22;9071;48.220;14.480;2022-11-06T17:07:35;6.60;99.90
17891;DHT22;9071;48.220;14.480;2022-11-06T17:12:37;6.30;99.90
17891;DHT22;9071;48.220;14.480;2022-11-06T17:17:39;6.20;99.90
17891;DHT22;9071;48.220;14.480;2022-11-06T17:22:43;6.10;99.90
17891;DHT22;9071;48.220;14.480;2022-11-06T17:27:45;6.00;99.90
17891;DHT22;9071;48.220;14.480;2022-11-06T17:32:47;5.90;99.90
17891;DHT22;9071;48.220;14.480;2022-11-06T17:37:50;5.80;99.90
17891;DHT22;9071;48.220;14.480;2022-11-06T17:43:01;5.60;99.90
17891;DHT22;9071;48.220;14.480;2022-11-06T17:48:07;5.50;99.90
17891;DHT22;9071;48.220;14.480;2022-11-06T17:53:10;5.40;99.90
17891;DHT22;9071;48.220;14.480;2022-11-06T17:58:13;5.30;99.90
17891;DHT22;9071;48.220;14.480;2022-11-06T18:03:16;5.20;99.90
17891;DHT22;9071;48.220;14.480;2022-11-06T18:08:20;5.10;99.90
17891;DHT22;9071;48.220;14.480;2022-11-06T18:13:22;5.00;99.90
17891;DHT22;9071;48.220;14.480;2022-11-06T18:18:24;4.90;99.90
17891;DHT22;9071;48.220;14.480;2022-11-06T18:23:28;5.10;99.90
17891;DHT22;9071;48.220;14.480;2022-11-06T18:28:30;5.00;99.90
17891;DHT22;9071;48.220;14.480;2022-11-06T18:33:32;4.80;99.90
17891;DHT22;9071;48.220;14.480;2022-11-06T18:38:36;4.60;99.90
17891;DHT22;9071;48.220;14.480;2022-11-06T18:43:38;4.50;99.90
17891;DHT22;9071;48.220;14.480;2022-11-06T18:48:41;4.40;99.90
17891;DHT22;9071;48.220;14.480;2022-11-06T18:53:44;4.40;99.90
17891;DHT22;9071;48.220;14.480;2022-11-06T18:58:46;4.40;99.90
17891;DHT22;9071;48.220;14.480;2022-11-06T19:03:48;4.50;99.90
17891;DHT22;9071;48.220;14.480;2022-11-06T19:08:52;4.50;99.90
17891;DHT22;9071;48.220;14.480;2022-11-06T19:13:55;4.40;99.90
17891;DHT22;9071;48.220;14.480;2022-11-06T19:19:00;4.50;99.90
17891;DHT22;9071;48.220;14.480;2022-11-06T19:24:04;4.60;99.90
17891;DHT22;9071;48.220;14.480;2022-11-06T19:29:07;4.40;99.90
17891;DHT22;9071;48.220;14.480;2022-11-06T19:34:12;4.30;99.90
17891;DHT22;9071;48.220;14.480;2022-11-06T19:39:15;4.20;99.90
17891;DHT22;9071;48.220;14.480;2022-11-06T19:44:17;4.00;99.90
17891;DHT22;9071;48.220;14.480;2022-11-06T19:49:19;4.00;99.90
17891;DHT22;9071;48.220;14.480;2022-11-06T19:54:23;3.90;99.90
17891;DHT22;9071;48.220;14.480;2022-11-06T19:59:28;3.90;99.90
17891;DHT22;9071;48.220;14.480;2022-11-06T20:04:30;3.80;99.90
17891;DHT22;9071;48.220;14.480;2022-11-06T20:09:34;3.70;99.90
17891;DHT22;9071;48.220;14.480;2022-11-06T20:14:36;3.70;99.90
17891;DHT22;9071;48.220;14.480;2022-11-06T20:19:38;3.60;99.90
17891;DHT22;9071;48.220;14.480;2022-11-06T20:24:41;3.50;99.90
17891;DHT22;9071;48.220;14.480;2022-11-06T20:29:43;3.60;99.90
17891;DHT22;9071;48.220;14.480;2022-11-06T20:34:45;3.50;99.90
17891;DHT22;9071;48.220;14.480;2022-11-06T20:39:51;3.40;99.90
17891;DHT22;9071;48.220;14.480;2022-11-06T20:44:53;3.30;99.90
17891;DHT22;9071;48.220;14.480;2022-11-06T20:49:55;3.20;99.90
17891;DHT22;9071;48.220;14.480;2022-11-06T20:54:59;3.20;99.90
17891;DHT22;9071;48.220;14.480;2022-11-06T21:00:01;3.20;99.90
17891;DHT22;9071;48.220;14.480;2022-11-06T21:05:03;3.30;99.90
17891;DHT22;9071;48.220;14.480;2022-11-06T21:10:07;3.30;99.90
17891;DHT22;9071;48.220;14.480;2022-11-06T21:15:11;3.30;99.90
17891;DHT22;9071;48.220;14.480;2022-11-06T21:20:13;3.30;99.90
17891;DHT22;9071;48.220;14.480;2022-11-06T21:25:18;3.40;99.90
17891;DHT22;9071;48.220;14.480;2022-11-06T21:30:20;3.40;99.90
17891;DHT22;9071;48.220;14.480;2022-11-06T21:35:22;3.40;99.90
17891;DHT22;9071;48.220;14.480;2022-11-06T21:40:25;3.50;99.90
17891;DHT22;9071;48.220;14.480;2022-11-06T21:45:27;3.50;99.90
17891;DHT22;9071;48.220;14.480;2022-11-06T21:50:29;3.60;99.90
17891;DHT22;9071;48.220;14.480;2022-11-06T21:55:35;3.70;99.90
17891;DHT22;9071;48.220;14.480;2022-11-06T22:00:54;3.70;99.90
17891;DHT22;9071;48.220;14.480;2022-11-06T22:06:03;3.80;99.90
17891;DHT22;9071;48.220;14.480;2022-11-06T22:11:11;3.80;99.90
17891;DHT22;9071;48.220;14.480;2022-11-06T22:16:16;3.80;99.90
17891;DHT22;9071;48.220;14.480;2022-11-06T22:21:20;3.90;99.90
17891;DHT22;9071;48.220;14.480;2022-11-06T22:26:25;4.10;99.90
17891;DHT22;9071;48.220;14.480;2022-11-06T22:31:29;4.30;99.90
17891;DHT22;9071;48.220;14.480;2022-11-06T22:36:31;4.30;99.90
17891;DHT22;9071;48.220;14.480;2022-11-06T22:41:34;4.20;99.90
17891;DHT22;9071;48.220;14.480;2022-11-06T22:46:37;4.10;99.90
17891;DHT22;9071;48.220;14.480;2022-11-06T22:51:39;4.10;99.90
17891;DHT22;9071;48.220;14.480;2022-11-06T22:56:42;3.90;99.90
17891;DHT22;9071;48.220;14.480;2022-11-06T23:01:44;3.90;99.90
17891;DHT22;9071;48.220;14.480;2022-11-06T23:06:46;3.90;99.90
17891;DHT22;9071;48.220;14.480;2022-11-06T23:11:50;3.90;99.90
17891;DHT22;9071;48.220;14.480;2022-11-06T23:16:52;4.00;99.90
17891;DHT22;9071;48.220;14.480;2022-11-06T23:22:00;4.10;99.90
17891;DHT22;9071;48.220;14.480;2022-11-06T23:27:20;4.20;99.90
17891;DHT22;9071;48.220;14.480;2022-11-06T23:32:23;4.40;99.90
17891;DHT22;9071;48.220;14.480;2022-11-06T23:37:25;4.50;99.90
17891;DHT22;9071;48.220;14.480;2022-11-06T23:42:29;4.70;99.90
17891;DHT22;9071;48.220;14.480;2022-11-06T23:47:31;4.80;99.90
17891;DHT22;9071;48.220;14.480;2022-11-06T23:52:33;4.90;99.90
17891;DHT22;9071;48.220;14.480;2022-11-06T23:57:36;4.80;99.90
